Time;durP1;ratioP1;P1;durP2;ratioP2;P2;SDS_P1;SDS_P2;PMS_P1;PMS_P2;Temp;Humidity;BMP_temperature;BMP_pressure;BME280_temperature;BME280_humidity;BME280_pressure;Samples;Min_cycle;Max_cycle;Signal;HPM_P1;HPM_P2
2021/08/05 17:53:51;;;;;;;;;;;26.70;64.30;;;;;;5032201;27;2816320;-88
2021/08/05 17:56:18;;;;;;;;;;;26.40;66.00;;;;;;5121384;28;19919;-88
2021/08/05 17:58:46;;;;;;;;;;;26.40;67.10;;;;;;5104855;28;20002;-88
2021/08/05 18:01:11;;;;;;;;;;;26.50;67.90;;;;;;5121584;28;19918;-88
2021/08/05 18:03:37;;;;;;;;;;;26.50;68.20;;;;;;5095357;28;19912;-88
2021/08/05 18:06:05;;;;;;;;;;;26.60;68.30;;;;;;5120579;28;20300;-88
2021/08/05 18:08:31;;;;;;;;;;;26.70;68.40;;;;;;5114108;28;20279;-89
2021/08/05 18:10:58;;;;;;;;;;;26.80;68.50;;;;;;5130231;28;20433;-88
2021/08/05 18:13:23;;;;;;;;;;;26.80;68.50;;;;;;5127310;27;19927;-89
2021/08/05 18:15:49;;;;;;;;;;;26.90;68.70;;;;;;5107146;28;19912;-88
2021/08/05 18:18:15;;;;;;;;;;;26.90;68.70;;;;;;5120290;28;19919;-88
2021/08/05 18:20:40;;;;;;;;;;;26.90;69.30;;;;;;5129026;28;19915;-91
2021/08/05 18:23:06;;;;;;;;;;;27.00;68.80;;;;;;5118394;27;20314;-89
2021/08/05 18:25:31;;;;;;;;;;;27.00;68.80;;;;;;5118720;28;19935;-89
2021/08/05 18:27:57;;;;;;;;;;;26.90;68.90;;;;;;5122080;28;19912;-89
2021/08/05 18:30:23;;;;;;;;;;;27.00;69.10;;;;;;5095671;28;20014;-89
2021/08/05 18:32:48;;;;;;;;;;;26.90;69.10;;;;;;5111345;28;19933;-90
2021/08/05 18:35:14;;;;;;;;;;;26.90;69.30;;;;;;5125397;28;19942;-89
2021/08/05 18:37:39;;;;;;;;;;;26.90;69.50;;;;;;5117144;28;20098;-90
2021/08/05 18:40:05;;;;;;;;;;;26.90;69.70;;;;;;5131109;27;19919;-91
2021/08/05 18:42:31;;;;;;;;;;;26.90;70.00;;;;;;5125081;28;19916;-91
2021/08/05 18:44:56;;;;;;;;;;;26.80;70.30;;;;;;5117202;27;20462;-90
2021/08/05 18:47:22;;;;;;;;;;;26.80;70.60;;;;;;5106202;27;19919;-90
2021/08/05 18:49:48;;;;;;;;;;;26.80;71.10;;;;;;5116812;28;19912;-90
2021/08/05 18:52:14;;;;;;;;;;;26.80;71.30;;;;;;5129449;28;19985;-90
2021/08/05 18:54:40;;;;;;;;;;;26.70;71.60;;;;;;5130760;28;19961;-90
2021/08/05 18:57:06;;;;;;;;;;;26.70;71.90;;;;;;5116936;28;19916;-90
2021/08/05 18:59:31;;;;;;;;;;;26.70;72.30;;;;;;5128777;27;19919;-92
2021/08/05 19:01:57;;;;;;;;;;;26.70;72.80;;;;;;5122571;28;20019;-91
2021/08/05 19:04:22;;;;;;;;;;;26.70;73.20;;;;;;5094729;28;20381;-90
2021/08/05 19:06:48;;;;;;;;;;;26.60;73.30;;;;;;5114362;28;19920;-91
2021/08/05 19:09:14;;;;;;;;;;;26.60;73.20;;;;;;5111287;28;20351;-91
2021/08/05 19:11:41;;;;;;;;;;;26.50;73.10;;;;;;5107161;28;20418;-90
2021/08/05 19:14:12;;;;;;;;;;;26.50;72.80;;;;;;5105880;28;20014;-92
2021/08/05 19:16:40;;;;;;;;;;;26.60;72.70;;;;;;5089472;28;19946;-91
2021/08/05 19:19:06;;;;;;;;;;;26.50;72.50;;;;;;5087260;28;19911;-90
2021/08/05 19:21:34;;;;;;;;;;;26.50;72.40;;;;;;5085844;28;19961;-90
2021/08/05 19:24:00;;;;;;;;;;;26.50;72.30;;;;;;5111417;28;20356;-91
2021/08/05 19:26:25;;;;;;;;;;;26.50;72.20;;;;;;5117408;28;19912;-90
2021/08/05 19:28:51;;;;;;;;;;;26.50;72.10;;;;;;5107759;28;19912;-91
2021/08/05 19:31:16;;;;;;;;;;;26.50;72.00;;;;;;5103009;28;19911;-92
2021/08/05 19:33:42;;;;;;;;;;;26.50;72.40;;;;;;5087267;28;19954;-91
2021/08/05 19:36:07;;;;;;;;;;;26.50;71.90;;;;;;5107606;28;19981;-90
2021/08/05 19:38:33;;;;;;;;;;;26.50;72.00;;;;;;5102825;28;19916;-91
2021/08/05 19:40:58;;;;;;;;;;;26.50;72.10;;;;;;5101838;28;20384;-90
2021/08/05 19:43:24;;;;;;;;;;;26.50;72.30;;;;;;5097924;28;19923;-90
2021/08/05 19:45:50;;;;;;;;;;;26.40;72.50;;;;;;5097775;28;19912;-91
2021/08/05 19:48:16;;;;;;;;;;;26.40;72.90;;;;;;5109486;28;19912;-91
2021/08/05 19:50:41;;;;;;;;;;;26.30;73.20;;;;;;5115684;28;20344;-91
2021/08/05 19:53:07;;;;;;;;;;;26.30;73.40;;;;;;5097003;28;19924;-92
2021/08/05 19:55:32;;;;;;;;;;;26.30;73.60;;;;;;5098881;27;19955;-91
2021/08/05 19:57:58;;;;;;;;;;;26.30;73.50;;;;;;5105246;28;19981;-91
2021/08/05 20:00:24;;;;;;;;;;;26.30;73.60;;;;;;5106467;28;19966;-91
2021/08/05 20:02:49;;;;;;;;;;;26.30;73.70;;;;;;5103782;28;19924;-90
2021/08/05 20:05:15;;;;;;;;;;;26.20;73.70;;;;;;5106874;28;20447;-89
2021/08/05 20:07:41;;;;;;;;;;;26.20;73.80;;;;;;5104949;28;19916;-90
2021/08/05 20:10:08;;;;;;;;;;;26.10;73.90;;;;;;5103252;27;19911;-90
2021/08/05 20:12:37;;;;;;;;;;;26.10;74.10;;;;;;5088450;28;20063;-89
2021/08/05 20:15:03;;;;;;;;;;;26.00;74.30;;;;;;5095059;28;19918;-90
2021/08/05 20:17:29;;;;;;;;;;;26.00;74.60;;;;;;5097516;28;19912;-91
2021/08/05 20:19:54;;;;;;;;;;;25.90;74.70;;;;;;5100810;28;19946;-93
2021/08/05 20:22:20;;;;;;;;;;;25.90;74.80;;;;;;5084610;28;19962;-91
2021/08/05 20:24:46;;;;;;;;;;;25.80;74.90;;;;;;5082920;28;19908;-92
2021/08/05 20:27:11;;;;;;;;;;;25.80;75.10;;;;;;5080305;28;19907;-92
2021/08/05 20:29:37;;;;;;;;;;;25.70;75.30;;;;;;5086586;28;19977;-93
2021/08/05 20:32:03;;;;;;;;;;;25.70;75.50;;;;;;5084326;28;19915;-94
2021/08/05 20:34:28;;;;;;;;;;;25.60;75.70;;;;;;5115967;28;20356;-93
2021/08/05 20:36:54;;;;;;;;;;;25.50;75.80;;;;;;5097586;28;19915;-92
2021/08/05 20:39:20;;;;;;;;;;;25.40;76.00;;;;;;5113845;28;19908;-93
2021/08/05 20:41:45;;;;;;;;;;;25.40;76.20;;;;;;5077301;28;20260;-93
2021/08/05 20:44:11;;;;;;;;;;;25.40;76.40;;;;;;5095826;28;19908;-92
2021/08/05 20:46:37;;;;;;;;;;;25.30;76.40;;;;;;5097306;28;20012;-91
